createdAt,value
2019-05-22T00:00:51.693Z,2.80
2019-05-22T00:03:24.050Z,2.70
2019-05-22T00:05:56.387Z,2.73
2019-05-22T00:08:27.634Z,2.70
2019-05-22T00:11:01.577Z,2.80
2019-05-22T00:13:31.434Z,3.10
2019-05-22T00:16:04.001Z,3.23
2019-05-22T00:18:35.681Z,2.90
2019-05-22T00:21:06.949Z,3.00
2019-05-22T00:23:38.730Z,3.00
2019-05-22T00:26:11.211Z,3.23
2019-05-22T00:28:42.893Z,2.90
2019-05-22T00:31:14.589Z,3.57
2019-05-22T00:33:45.560Z,3.90
2019-05-22T00:36:17.471Z,2.90
2019-05-22T00:38:47.817Z,3.10
2019-05-22T00:41:20.829Z,2.50
2019-05-22T00:43:51.600Z,3.30
2019-05-22T00:46:21.544Z,2.70
2019-05-22T00:48:54.398Z,2.07
2019-05-22T00:51:45.563Z,2.57
2019-05-22T00:54:26.340Z,2.87
2019-05-22T00:57:14.083Z,2.40
2019-05-22T00:59:46.817Z,2.50
2019-05-22T01:02:21.343Z,2.40
2019-05-22T01:04:52.134Z,2.47
2019-05-22T01:07:32.847Z,2.47
2019-05-22T01:10:04.954Z,2.90
2019-05-22T01:12:42.594Z,2.73
2019-05-22T01:15:16.090Z,2.90
2019-05-22T01:17:48.374Z,2.63
2019-05-22T01:20:24.517Z,2.83
2019-05-22T01:22:58.042Z,2.80
2019-05-22T01:25:29.037Z,3.10
2019-05-22T01:28:00.076Z,3.10
2019-05-22T01:30:41.941Z,3.53
2019-05-22T01:33:16.590Z,3.43
2019-05-22T01:36:05.332Z,3.20
2019-05-22T01:38:35.743Z,3.57
2019-05-22T01:41:08.456Z,3.60
2019-05-22T01:43:39.848Z,3.83
2019-05-22T01:46:12.434Z,3.30
2019-05-22T01:48:45.302Z,3.53
2019-05-22T01:51:16.815Z,3.43
2019-05-22T01:53:47.560Z,3.40
2019-05-22T01:56:19.829Z,3.60
2019-05-22T01:58:50.660Z,3.80
2019-05-22T02:01:24.364Z,3.70
2019-05-22T02:03:58.319Z,3.87
2019-05-22T02:06:29.330Z,3.80
2019-05-22T02:09:35.582Z,3.80
2019-05-22T02:12:18.003Z,3.90
2019-05-22T02:14:50.986Z,4.33
2019-05-22T02:17:22.310Z,4.10
2019-05-22T02:19:52.014Z,4.00
2019-05-22T02:22:21.993Z,3.73
2019-05-22T02:24:53.744Z,3.93
2019-05-22T02:27:23.962Z,4.37
2019-05-22T02:29:56.196Z,4.53
2019-05-22T02:32:28.747Z,3.47
2019-05-22T02:34:58.877Z,4.40
2019-05-22T02:37:32.531Z,3.77
2019-05-22T02:40:02.211Z,3.77
2019-05-22T02:42:33.070Z,3.33
2019-05-22T02:45:03.557Z,3.83
2019-05-22T02:47:34.180Z,3.30
2019-05-22T02:50:05.367Z,3.53
2019-05-22T02:52:35.507Z,3.95
2019-05-22T02:55:06.991Z,3.00
2019-05-22T02:57:37.863Z,4.33
2019-05-22T03:00:08.947Z,3.80
2019-05-22T03:02:42.880Z,3.27
2019-05-22T03:05:15.281Z,2.80
2019-05-22T03:07:46.594Z,3.80
2019-05-22T03:10:19.271Z,2.63
2019-05-22T03:12:51.588Z,3.57
2019-05-22T03:15:24.350Z,3.40
2019-05-22T03:18:04.919Z,3.53
2019-05-22T03:20:37.712Z,3.47
2019-05-22T03:23:38.659Z,3.30
2019-05-22T03:26:10.542Z,2.63
2019-05-22T03:28:41.963Z,2.60
2019-05-22T03:31:13.710Z,2.93
2019-05-22T03:33:44.736Z,3.00
2019-05-22T03:36:21.156Z,2.70
2019-05-22T03:38:52.129Z,2.60
2019-05-22T03:41:23.043Z,2.87
2019-05-22T03:43:55.693Z,3.47
2019-05-22T03:46:42.765Z,3.37
2019-05-22T03:49:28.907Z,2.93
2019-05-22T03:51:49.400Z,2.72
2019-05-22T03:54:20.461Z,2.50
2019-05-22T03:56:50.819Z,2.70
2019-05-22T03:59:22.484Z,2.90
2019-05-22T04:01:52.867Z,2.93
2019-05-22T04:04:42.494Z,2.40
2019-05-22T04:07:18.530Z,2.03
2019-05-22T04:09:51.506Z,2.20
2019-05-22T04:12:23.673Z,2.17
2019-05-22T04:14:54.196Z,1.93
2019-05-22T04:17:25.384Z,2.00
2019-05-22T04:19:57.059Z,1.70
2019-05-22T04:22:27.620Z,1.93
2019-05-22T04:24:57.374Z,2.00
2019-05-22T04:27:27.023Z,1.87
2019-05-22T04:29:58.242Z,1.93
2019-05-22T04:32:33.486Z,2.35
2019-05-22T04:35:04.916Z,2.03
2019-05-22T04:37:36.243Z,1.73
2019-05-22T04:40:24.338Z,2.10
2019-05-22T04:42:55.927Z,1.90
2019-05-22T04:45:26.625Z,1.73
2019-05-22T04:48:00.631Z,1.47
2019-05-22T04:50:32.411Z,1.70
2019-05-22T04:53:03.651Z,1.80
2019-05-22T04:55:34.211Z,1.60
2019-05-22T04:58:08.403Z,2.20
2019-05-22T05:00:39.982Z,1.50
2019-05-22T05:03:11.860Z,1.50
2019-05-22T05:05:43.642Z,1.53
2019-05-22T05:08:15.246Z,1.87
2019-05-22T05:10:48.134Z,1.80
2019-05-22T05:13:18.808Z,1.60
2019-05-22T05:15:48.568Z,1.55
2019-05-22T05:18:20.797Z,1.50
2019-05-22T05:20:51.304Z,1.60
2019-05-22T05:23:21.839Z,1.70
2019-05-22T05:25:51.567Z,1.80
2019-05-22T05:28:23.285Z,1.73
2019-05-22T05:30:53.667Z,1.60
2019-05-22T05:33:23.703Z,1.53
2019-05-22T05:35:54.266Z,1.70
2019-05-22T05:38:35.978Z,1.30
2019-05-22T05:41:06.952Z,1.80
2019-05-22T05:43:36.670Z,1.80
2019-05-22T05:46:06.875Z,1.70
2019-05-22T05:48:37.017Z,2.13
2019-05-22T05:51:36.005Z,2.37
2019-05-22T05:54:12.135Z,1.93
2019-05-22T05:56:43.658Z,2.20
2019-05-22T05:59:16.244Z,2.43
2019-05-22T06:02:00.290Z,2.07
2019-05-22T06:04:35.499Z,1.73
2019-05-22T06:07:24.352Z,1.90
2019-05-22T06:10:31.570Z,1.90
2019-05-22T06:13:02.266Z,1.80
2019-05-22T06:15:47.164Z,2.13
2019-05-22T06:18:32.622Z,1.80
2019-05-22T06:21:04.606Z,1.80
2019-05-22T06:24:23.739Z,1.60
2019-05-22T06:27:03.362Z,1.40
2019-05-22T06:29:36.389Z,1.50
2019-05-22T06:32:34.424Z,1.90
2019-05-22T06:35:07.310Z,1.90
2019-05-22T06:37:39.915Z,1.40
2019-05-22T06:40:11.775Z,1.50
2019-05-22T06:42:45.347Z,1.63
2019-05-22T06:45:15.734Z,1.60
2019-05-22T06:47:46.179Z,1.37
2019-05-22T06:50:16.635Z,1.77
2019-05-22T06:52:47.091Z,1.43
2019-05-22T06:55:16.920Z,1.40
2019-05-22T06:57:47.194Z,1.50
2019-05-22T07:00:21.549Z,1.33
2019-05-22T07:02:52.423Z,1.50
2019-05-22T07:05:22.976Z,1.33
2019-05-22T07:07:53.689Z,1.40
2019-05-22T07:10:24.851Z,1.30
2019-05-22T07:12:54.671Z,1.37
2019-05-22T07:15:39.530Z,0.93
2019-05-22T07:18:12.727Z,1.03
2019-05-22T07:20:44.242Z,1.00
2019-05-22T07:23:16.771Z,1.17
2019-05-22T07:25:49.205Z,1.10
2019-05-22T07:28:20.308Z,1.30
2019-05-22T07:30:51.684Z,1.03
2019-05-22T07:33:22.268Z,1.40
2019-05-22T07:36:08.363Z,1.00
2019-05-22T07:38:25.309Z,1.10
2019-05-22T07:40:56.098Z,0.90
2019-05-22T07:43:25.918Z,1.03
2019-05-22T07:45:57.322Z,0.93
2019-05-22T07:48:30.009Z,1.00
2019-05-22T07:51:02.688Z,0.97
2019-05-22T07:53:34.485Z,1.10
2019-05-22T07:56:10.022Z,1.10
2019-05-22T07:58:39.739Z,0.90
2019-05-22T08:01:11.108Z,1.00
2019-05-22T08:03:45.388Z,0.83
2019-05-22T08:06:16.643Z,1.10
2019-05-22T08:08:49.250Z,1.03
2019-05-22T08:11:22.392Z,1.00
2019-05-22T08:13:52.485Z,1.00
2019-05-22T08:16:23.548Z,0.80
2019-05-22T08:18:54.050Z,0.80
2019-05-22T08:21:25.096Z,0.80
2019-05-22T08:23:58.080Z,0.70
2019-05-22T08:26:29.785Z,0.65
2019-05-22T08:29:00.769Z,0.77
2019-05-22T08:31:33.074Z,0.93
2019-05-22T08:34:02.795Z,0.90
2019-05-22T08:36:32.394Z,0.90
2019-05-22T08:39:03.805Z,0.67
2019-05-22T08:41:35.033Z,0.80
2019-05-22T08:44:16.570Z,1.13
2019-05-22T08:46:39.943Z,0.90
2019-05-22T08:49:10.175Z,1.00
2019-05-22T08:51:41.110Z,0.80
2019-05-22T08:54:13.107Z,1.00
2019-05-22T08:56:47.288Z,0.93
2019-05-22T08:59:19.746Z,1.30
2019-05-22T09:01:48.935Z,1.40
2019-05-22T09:04:19.294Z,1.40
2019-05-22T09:06:48.948Z,1.80
2019-05-22T09:09:20.056Z,1.70
2019-05-22T09:11:49.737Z,1.20
2019-05-22T09:14:20.923Z,1.70
2019-05-22T09:16:52.068Z,2.10
2019-05-22T09:19:21.917Z,2.10
2019-05-22T09:21:52.946Z,2.10
2019-05-22T09:24:26.042Z,2.50
2019-05-22T09:26:55.791Z,2.50
2019-05-22T09:29:26.300Z,2.20
2019-05-22T09:31:56.789Z,2.30
2019-05-22T09:34:27.390Z,2.33
2019-05-22T09:36:57.164Z,2.23
2019-05-22T09:39:27.427Z,2.00
2019-05-22T09:41:57.133Z,2.13
2019-05-22T09:44:26.811Z,2.40
2019-05-22T09:46:57.081Z,2.80
2019-05-22T09:49:27.548Z,2.80
2019-05-22T09:51:58.442Z,1.30
2019-05-22T09:54:28.360Z,2.00
2019-05-22T09:56:58.046Z,2.80
2019-05-22T09:59:27.671Z,2.30
2019-05-22T10:01:57.382Z,3.10
2019-05-22T10:04:27.026Z,2.43
2019-05-22T10:06:57.518Z,2.87
2019-05-22T10:09:27.605Z,2.50
2019-05-22T10:11:58.354Z,2.63
2019-05-22T10:14:28.553Z,2.83
2019-05-22T10:16:58.841Z,2.67
2019-05-22T10:19:28.571Z,1.77
2019-05-22T10:21:58.698Z,1.90
2019-05-22T10:24:28.406Z,1.80
2019-05-22T10:26:58.028Z,2.30
2019-05-22T10:29:31.805Z,2.50
2019-05-22T10:31:59.137Z,2.20
2019-05-22T10:34:29.515Z,2.40
2019-05-22T10:37:00.139Z,2.70
2019-05-22T10:39:30.791Z,2.57
2019-05-22T10:42:01.275Z,2.80
2019-05-22T10:44:31.776Z,2.70
2019-05-22T10:47:01.671Z,3.00
2019-05-22T10:49:32.047Z,3.50
2019-05-22T10:52:02.670Z,3.00
2019-05-22T10:54:32.375Z,2.57
2019-05-22T10:57:02.206Z,2.60
2019-05-22T10:59:32.777Z,3.17
2019-05-22T11:02:03.359Z,3.23
2019-05-22T11:04:33.946Z,3.08
2019-05-22T11:07:05.991Z,3.63
2019-05-22T11:09:37.175Z,3.90
2019-05-22T11:12:08.173Z,3.70
2019-05-22T11:14:37.928Z,3.70
2019-05-22T11:17:07.777Z,3.90
2019-05-22T11:19:38.475Z,4.03
2019-05-22T11:22:09.619Z,4.33
2019-05-22T11:24:39.304Z,3.50
2019-05-22T11:27:10.275Z,3.73
2019-05-22T11:29:40.729Z,4.30
2019-05-22T11:32:11.141Z,4.00
2019-05-22T11:34:41.042Z,3.73
2019-05-22T11:37:11.230Z,3.37
2019-05-22T11:39:44.935Z,3.50
2019-05-22T11:42:13.990Z,4.33
2019-05-22T11:44:44.501Z,4.30
2019-05-22T11:47:15.223Z,4.77
2019-05-22T11:49:45.909Z,4.10
2019-05-22T11:52:17.153Z,3.67
2019-05-22T11:54:46.828Z,4.30
2019-05-22T11:57:17.676Z,4.40
2019-05-22T11:59:47.934Z,4.83
2019-05-22T12:02:18.251Z,4.80
2019-05-22T12:04:49.002Z,4.67
2019-05-22T12:07:20.593Z,4.83
2019-05-22T12:09:50.976Z,4.60
2019-05-22T12:12:21.638Z,4.00
2019-05-22T12:14:52.116Z,4.30
2019-05-22T12:17:37.419Z,4.00
2019-05-22T12:19:54.237Z,3.83
2019-05-22T12:22:25.156Z,3.58
2019-05-22T12:24:54.846Z,3.43
2019-05-22T12:27:24.665Z,3.77
2019-05-22T12:29:57.067Z,3.63
2019-05-22T12:32:30.333Z,3.53
2019-05-22T12:35:00.842Z,2.73
2019-05-22T12:37:33.632Z,3.67
2019-05-22T12:40:03.769Z,2.93
2019-05-22T12:42:33.843Z,3.33
2019-05-22T12:45:05.287Z,2.63
2019-05-22T12:47:35.695Z,3.30
2019-05-22T12:50:06.824Z,3.73
2019-05-22T12:52:38.869Z,4.00
2019-05-22T12:55:08.724Z,3.50
2019-05-22T12:57:38.597Z,3.00
2019-05-22T13:00:10.248Z,3.80
2019-05-22T13:02:42.887Z,3.33
2019-05-22T13:05:14.946Z,3.60
2019-05-22T13:07:45.343Z,3.13
2019-05-22T13:10:17.090Z,3.50
2019-05-22T13:12:48.040Z,3.80
2019-05-22T13:15:18.076Z,4.20
2019-05-22T13:17:49.587Z,4.67
2019-05-22T13:20:40.953Z,7.73
2019-05-22T13:22:58.017Z,4.73
2019-05-22T13:25:31.028Z,5.00
2019-05-22T13:28:01.260Z,5.80
2019-05-22T13:30:32.579Z,5.23
2019-05-22T13:33:04.306Z,5.33
2019-05-22T13:35:36.805Z,4.97
2019-05-22T13:38:07.377Z,4.90
2019-05-22T13:40:39.201Z,5.00
2019-05-22T13:43:10.730Z,5.63
2019-05-22T13:45:41.078Z,5.03
2019-05-22T13:48:11.936Z,5.00
2019-05-22T13:50:44.773Z,5.73
2019-05-22T13:53:17.943Z,4.70
2019-05-22T13:55:48.212Z,4.53
2019-05-22T13:58:21.775Z,5.17
2019-05-22T14:00:52.336Z,5.00
2019-05-22T14:03:24.998Z,5.37
2019-05-22T14:05:58.436Z,4.45
2019-05-22T14:08:29.032Z,4.47
2019-05-22T14:10:59.233Z,4.10
2019-05-22T14:13:29.824Z,4.23
2019-05-22T14:16:00.919Z,3.80
2019-05-22T14:18:31.466Z,3.25
2019-05-22T14:21:02.482Z,3.30
2019-05-22T14:23:33.083Z,2.98
2019-05-22T14:26:03.483Z,3.08
2019-05-22T14:28:35.123Z,3.27
2019-05-22T14:31:04.935Z,3.75
2019-05-22T14:33:40.231Z,3.80
2019-05-22T14:36:07.090Z,3.27
2019-05-22T14:38:36.936Z,3.67
2019-05-22T14:41:07.266Z,3.70
2019-05-22T14:43:36.928Z,3.92
2019-05-22T14:46:07.365Z,4.55
2019-05-22T14:48:37.648Z,5.03
2019-05-22T14:51:07.773Z,4.17
2019-05-22T14:53:38.200Z,4.05
2019-05-22T14:56:10.997Z,3.83
2019-05-22T14:58:42.447Z,4.47
2019-05-22T15:01:12.419Z,3.75
2019-05-22T15:03:43.669Z,3.02
2019-05-22T15:06:14.964Z,3.60
2019-05-22T15:08:45.934Z,3.87
2019-05-22T15:11:16.164Z,3.83
2019-05-22T15:13:46.392Z,3.30
2019-05-22T15:16:16.098Z,3.33
2019-05-22T15:18:46.777Z,2.70
2019-05-22T15:21:18.331Z,3.70
2019-05-22T15:23:48.867Z,3.40
2019-05-22T15:26:21.561Z,3.87
2019-05-22T15:28:52.223Z,4.42
2019-05-22T15:31:22.312Z,3.22
2019-05-22T15:33:51.969Z,3.42
2019-05-22T15:36:24.102Z,3.87
2019-05-22T15:38:55.062Z,3.45
2019-05-22T15:41:25.744Z,4.00
2019-05-22T15:43:56.312Z,4.00
2019-05-22T15:46:29.091Z,3.90
2019-05-22T15:48:59.429Z,3.62
2019-05-22T15:51:32.974Z,3.77
2019-05-22T15:54:05.342Z,3.12
2019-05-22T15:56:37.998Z,2.92
2019-05-22T15:59:12.795Z,3.80
2019-05-22T16:01:42.876Z,3.60
2019-05-22T16:04:14.595Z,3.12
2019-05-22T16:06:46.905Z,3.30
2019-05-22T16:09:19.121Z,3.70
2019-05-22T16:11:50.914Z,3.50
2019-05-22T16:14:21.510Z,3.80
2019-05-22T16:16:52.920Z,3.70
2019-05-22T16:19:24.597Z,4.22
2019-05-22T16:21:55.679Z,4.72
2019-05-22T16:24:27.466Z,4.92
2019-05-22T16:26:57.267Z,4.22
2019-05-22T16:29:27.308Z,4.80
2019-05-22T16:32:00.539Z,5.28
2019-05-22T16:34:31.400Z,4.70
2019-05-22T16:37:03.956Z,5.17
2019-05-22T16:39:36.655Z,4.43
2019-05-22T16:42:08.045Z,4.45
2019-05-22T16:44:38.769Z,4.45
2019-05-22T16:47:10.954Z,4.70
2019-05-22T16:49:42.209Z,4.67
2019-05-22T16:52:14.323Z,5.87
2019-05-22T16:54:47.416Z,5.42
2019-05-22T16:57:17.425Z,5.53
2019-05-22T16:59:47.328Z,6.00
2019-05-22T17:02:17.862Z,6.23
2019-05-22T17:04:47.649Z,5.77
2019-05-22T17:07:18.276Z,6.07
2019-05-22T17:09:49.555Z,6.00
2019-05-22T17:12:21.869Z,5.53
2019-05-22T17:14:54.822Z,5.53
2019-05-22T17:17:26.059Z,5.87
2019-05-22T17:19:56.648Z,5.43
2019-05-22T17:22:26.845Z,5.20
2019-05-22T17:24:56.875Z,5.53
2019-05-22T17:27:28.089Z,5.37
2019-05-22T17:29:58.480Z,6.23
2019-05-22T17:32:29.297Z,5.80
2019-05-22T17:35:00.452Z,5.57
2019-05-22T17:37:31.030Z,5.25
2019-05-22T17:40:02.144Z,5.83
2019-05-22T17:42:33.991Z,6.33
2019-05-22T17:45:04.333Z,5.77
2019-05-22T17:47:35.183Z,5.65
2019-05-22T17:50:04.984Z,5.77
2019-05-22T17:52:36.261Z,5.77
2019-05-22T17:55:07.109Z,5.43
2019-05-22T17:57:38.199Z,5.57
2019-05-22T18:00:12.818Z,5.60
2019-05-22T18:02:42.354Z,4.87
2019-05-22T18:05:13.282Z,6.00
2019-05-22T18:07:42.891Z,5.60
2019-05-22T18:10:13.329Z,4.73
2019-05-22T18:12:43.984Z,4.80
2019-05-22T18:15:14.533Z,4.50
2019-05-22T18:17:45.198Z,4.03
2019-05-22T18:20:17.419Z,4.90
2019-05-22T18:22:47.664Z,4.40
2019-05-22T18:25:18.083Z,4.07
2019-05-22T18:27:48.629Z,3.93
2019-05-22T18:30:19.392Z,3.90
2019-05-22T18:32:49.862Z,4.17
2019-05-22T18:35:21.093Z,3.30
2019-05-22T18:37:51.530Z,3.20
2019-05-22T18:40:21.416Z,3.20
2019-05-22T18:42:51.443Z,3.70
2019-05-22T18:45:22.276Z,3.70
2019-05-22T18:47:52.409Z,3.73
2019-05-22T18:50:22.924Z,4.00
2019-05-22T18:52:53.943Z,4.20
2019-05-22T18:55:23.870Z,4.30
2019-05-22T18:57:54.374Z,4.17
2019-05-22T19:00:26.956Z,4.17
2019-05-22T19:02:57.832Z,4.30
2019-05-22T19:05:31.873Z,3.90
2019-05-22T19:08:02.796Z,6.67
2019-05-22T19:10:33.619Z,7.40
2019-05-22T19:13:06.552Z,8.90
2019-05-22T19:15:36.502Z,10.20
2019-05-22T19:18:07.029Z,10.17
2019-05-22T19:20:37.451Z,10.10
2019-05-22T19:23:07.675Z,10.37
2019-05-22T19:25:37.378Z,10.50
2019-05-22T19:28:07.055Z,10.83
2019-05-22T19:30:38.131Z,10.53
2019-05-22T19:33:08.499Z,11.33
2019-05-22T19:35:38.249Z,9.83
2019-05-22T19:38:08.814Z,10.13
2019-05-22T19:40:38.650Z,9.80
2019-05-22T19:43:09.135Z,10.47
2019-05-22T19:45:38.733Z,10.63
2019-05-22T19:48:10.111Z,10.67
2019-05-22T19:50:40.543Z,10.70
2019-05-22T19:53:19.217Z,11.83
2019-05-22T19:55:46.676Z,12.33
2019-05-22T19:58:21.635Z,10.93
2019-05-22T20:00:48.964Z,11.23
2019-05-22T20:03:19.801Z,10.43
2019-05-22T20:05:50.181Z,10.93
2019-05-22T20:08:20.890Z,10.13
2019-05-22T20:10:52.469Z,10.73
2019-05-22T20:13:22.884Z,9.40
2019-05-22T20:15:53.374Z,9.33
2019-05-22T20:18:23.804Z,8.10
2019-05-22T20:20:54.621Z,6.80
2019-05-22T20:23:35.218Z,8.88
2019-05-22T20:25:56.008Z,8.87
2019-05-22T20:28:27.275Z,10.80
2019-05-22T20:30:57.914Z,11.17
2019-05-22T20:33:28.911Z,11.80
2019-05-22T20:35:59.630Z,9.77
2019-05-22T20:38:30.638Z,6.13
2019-05-22T20:41:01.106Z,5.27
2019-05-22T20:43:31.784Z,5.93
2019-05-22T20:46:02.106Z,6.13
2019-05-22T20:48:33.071Z,6.20
2019-05-22T20:51:04.424Z,5.33
2019-05-22T20:53:52.969Z,5.30
2019-05-22T20:56:10.503Z,5.40
2019-05-22T20:58:40.778Z,5.17
2019-05-22T21:01:12.549Z,5.87
2019-05-22T21:03:44.198Z,5.20
2019-05-22T21:06:16.704Z,4.63
2019-05-22T21:08:49.020Z,4.60
2019-05-22T21:11:21.261Z,4.50
2019-05-22T21:13:51.333Z,5.03
2019-05-22T21:16:22.773Z,6.53
2019-05-22T21:18:55.541Z,6.70
2019-05-22T21:21:25.928Z,6.10
2019-05-22T21:24:09.304Z,6.47
2019-05-22T21:26:27.912Z,6.12
2019-05-22T21:28:59.806Z,6.30
2019-05-22T21:31:30.926Z,5.10
2019-05-22T21:34:03.288Z,4.50
2019-05-22T21:36:33.769Z,5.50
2019-05-22T21:39:05.661Z,4.97
2019-05-22T21:41:35.357Z,4.65
2019-05-22T21:44:06.289Z,5.40
2019-05-22T21:46:36.963Z,5.10
2019-05-22T21:49:08.997Z,6.23
2019-05-22T21:51:39.192Z,5.93
2019-05-22T21:54:10.169Z,7.70
2019-05-22T21:56:41.104Z,8.07
2019-05-22T21:59:11.369Z,9.23
2019-05-22T22:01:49.430Z,9.33
2019-05-22T22:04:23.372Z,9.83
2019-05-22T22:06:55.379Z,11.73
2019-05-22T22:09:26.319Z,11.97
2019-05-22T22:11:57.797Z,13.07
2019-05-22T22:14:28.999Z,12.98
2019-05-22T22:17:00.179Z,13.90
2019-05-22T22:19:31.752Z,14.98
2019-05-22T22:22:03.754Z,14.53
2019-05-22T22:24:34.970Z,12.53
2019-05-22T22:27:05.411Z,11.27
2019-05-22T22:29:35.457Z,13.97
2019-05-22T22:32:10.538Z,15.83
2019-05-22T22:34:47.517Z,16.10
2019-05-22T22:37:19.201Z,17.60
2019-05-22T22:39:55.398Z,17.10
2019-05-22T22:42:26.466Z,16.27
2019-05-22T22:44:57.601Z,17.07
2019-05-22T22:47:46.291Z,16.77
2019-05-22T22:50:18.435Z,16.40
2019-05-22T22:52:48.678Z,16.43
2019-05-22T22:55:20.975Z,16.73
2019-05-22T22:57:52.304Z,17.40
2019-05-22T23:00:29.779Z,16.70
2019-05-22T23:03:02.281Z,16.13
2019-05-22T23:05:34.997Z,14.70
2019-05-22T23:08:06.140Z,15.30
2019-05-22T23:10:37.375Z,14.70
2019-05-22T23:13:08.354Z,16.00
2019-05-22T23:15:40.154Z,16.57
2019-05-22T23:18:11.733Z,17.27
2019-05-22T23:20:41.190Z,18.20
2019-05-22T23:23:09.829Z,18.17
2019-05-22T23:25:42.346Z,18.47
2019-05-22T23:28:13.553Z,18.67
2019-05-22T23:30:43.913Z,18.57
2019-05-22T23:33:14.282Z,19.03
2019-05-22T23:35:44.846Z,20.23
2019-05-22T23:38:15.498Z,20.50
2019-05-22T23:40:48.449Z,20.07
2019-05-22T23:43:20.307Z,19.93
2019-05-22T23:45:51.193Z,20.55
2019-05-22T23:48:23.376Z,20.50
2019-05-22T23:50:53.774Z,21.73
2019-05-22T23:53:25.024Z,21.60
2019-05-22T23:55:56.279Z,22.17
2019-05-22T23:58:27.868Z,21.17
